Time;durP1;ratioP1;P1;durP2;ratioP2;P2;SDS_P1;SDS_P2;PMS_P1;PMS_P2;Temp;Humidity;BMP_temperature;BMP_pressure;BME280_temperature;BME280_humidity;BME280_pressure;Samples;Min_cycle;Max_cycle;Signal;HPM_P1;HPM_P2
2021/07/07 00:02:18;;;;;;;4.37;1.10;;;21.20;98.50;;;;;;1875164;76;21069;-72
2021/07/07 00:04:49;;;;;;;3.75;1.10;;;21.20;98.50;;;;;;1868502;76;21175;-72
2021/07/07 00:07:15;;;;;;;3.95;1.07;;;21.10;98.50;;;;;;1886199;75;21102;-72
2021/07/07 00:09:43;;;;;;;2.60;0.85;;;21.00;98.60;;;;;;1884285;76;21199;-72
2021/07/07 00:12:10;;;;;;;7.08;1.10;;;21.00;98.70;;;;;;1887152;76;21547;-72
2021/07/07 00:14:38;;;;;;;5.85;0.98;;;21.00;98.90;;;;;;1885973;76;21655;-72
2021/07/07 00:17:05;;;;;;;6.53;1.00;;;20.90;99.00;;;;;;1876575;76;21032;-72
2021/07/07 00:19:33;;;;;;;3.58;0.90;;;20.90;99.00;;;;;;1859006;76;21166;-71
2021/07/07 00:22:00;;;;;;;5.70;1.15;;;20.90;99.10;;;;;;1858028;74;21148;-69
2021/07/07 00:24:28;;;;;;;4.95;1.20;;;20.90;99.10;;;;;;1853843;76;21182;-68
2021/07/07 00:26:56;;;;;;;7.22;1.35;;;20.90;99.50;;;;;;1856419;77;21190;-70
2021/07/07 00:29:23;;;;;;;2.87;0.98;;;20.80;99.40;;;;;;1856431;76;21639;-71
2021/07/07 00:31:51;;;;;;;4.37;0.85;;;20.80;99.30;;;;;;1813345;77;21154;-69
2021/07/07 00:34:19;;;;;;;2.33;0.60;;;20.80;99.40;;;;;;1822205;77;21119;-71
2021/07/07 00:36:46;;;;;;;5.37;1.17;;;20.80;99.40;;;;;;1822531;77;21143;-71
2021/07/07 00:39:14;;;;;;;7.40;1.10;;;20.80;99.40;;;;;;1824234;77;21678;-70
2021/07/07 00:41:42;;;;;;;8.63;1.80;;;20.80;99.50;;;;;;1824528;77;21263;-70
2021/07/07 00:44:09;;;;;;;6.05;1.10;;;20.70;99.70;;;;;;1825128;77;21095;-70
2021/07/07 00:46:37;;;;;;;2.35;1.00;;;20.60;99.70;;;;;;1825106;77;21118;-71
2021/07/07 00:49:05;;;;;;;4.97;1.22;;;20.70;99.80;;;;;;1829181;77;21596;-70
2021/07/07 00:51:34;;;;;;;2.90;1.20;;;20.70;99.90;;;;;;1829641;77;21129;-70
2021/07/07 00:54:01;;;;;;;4.70;1.32;;;20.70;99.90;;;;;;1828538;77;21530;-71
2021/07/07 00:56:29;;;;;;;5.92;1.10;;;20.60;99.90;;;;;;1825525;77;21613;-70
2021/07/07 00:58:58;;;;;;;7.33;1.00;;;20.60;99.90;;;;;;1841335;77;21085;-69
2021/07/07 01:01:27;;;;;;;3.87;1.62;;;20.60;99.90;;;;;;1825739;77;21211;-71
2021/07/07 01:03:54;;;;;;;8.05;1.77;;;20.40;99.90;;;;;;1822772;77;21120;-69
2021/07/07 01:06:22;;;;;;;3.15;1.20;;;20.50;99.90;;;;;;1821944;77;21517;-70
2021/07/07 01:08:49;;;;;;;4.72;1.17;;;20.40;99.90;;;;;;1832477;77;21553;-70
2021/07/07 01:11:17;;;;;;;5.85;1.05;;;20.40;99.90;;;;;;1821584;77;21267;-70
2021/07/07 01:13:44;;;;;;;7.12;1.37;;;20.50;99.90;;;;;;1823998;77;21080;-69
2021/07/07 01:16:12;;;;;;;8.70;1.20;;;20.50;99.90;;;;;;1837980;77;21102;-70
2021/07/07 01:18:39;;;;;;;2.83;1.00;;;20.50;99.90;;;;;;1835832;77;21163;-69
2021/07/07 01:21:07;;;;;;;6.00;1.30;;;20.50;99.90;;;;;;1823059;77;21221;-71
2021/07/07 01:23:34;;;;;;;5.45;1.10;;;20.50;99.90;;;;;;1823376;78;21089;-70
2021/07/07 01:26:21;;;;;;;3.60;0.95;;;20.50;99.90;;;;;;1823015;77;21526;-70
2021/07/07 01:28:49;;;;;;;3.65;0.82;;;20.50;99.90;;;;;;1889746;74;21093;-69
2021/07/07 01:31:16;;;;;;;4.70;1.20;;;20.40;99.90;;;;;;1884379;74;21138;-69
2021/07/07 01:33:44;;;;;;;5.33;0.90;;;20.40;99.90;;;;;;1881822;76;21070;-69
2021/07/07 01:36:11;;;;;;;2.95;1.15;;;20.30;99.90;;;;;;1874699;74;21095;-69
2021/07/07 01:38:39;;;;;;;5.30;1.70;;;20.40;99.90;;;;;;1876100;74;21163;-69
2021/07/07 01:41:07;;;;;;;3.52;1.17;;;20.30;99.90;;;;;;1868582;75;21604;-69
2021/07/07 01:43:34;;;;;;;5.55;1.10;;;20.30;99.90;;;;;;1875238;74;21016;-69
2021/07/07 01:46:02;;;;;;;3.30;0.98;;;20.20;99.90;;;;;;1866276;77;21181;-70
2021/07/07 01:48:29;;;;;;;5.70;0.88;;;20.20;99.90;;;;;;1871743;75;21109;-69
2021/07/07 01:50:57;;;;;;;4.90;1.42;;;20.20;99.90;;;;;;1843098;77;21207;-70
2021/07/07 01:53:24;;;;;;;3.12;1.12;;;20.20;99.90;;;;;;1844917;77;21135;-70
2021/07/07 01:55:55;;;;;;;7.12;1.10;;;20.20;99.90;;;;;;1843639;77;21129;-70
2021/07/07 01:58:21;;;;;;;4.78;1.10;;;20.20;99.90;;;;;;1846185;77;21132;-69
2021/07/07 02:00:48;;;;;;;4.65;1.30;;;20.10;99.90;;;;;;1860216;75;21131;-70
2021/07/07 02:03:16;;;;;;;6.10;1.42;;;20.10;99.90;;;;;;1839697;76;21092;-70
2021/07/07 02:05:43;;;;;;;6.22;1.17;;;20.10;99.90;;;;;;1873673;76;21169;-69
2021/07/07 02:08:12;;;;;;;11.05;1.25;;;20.10;99.90;;;;;;1880466;76;21120;-68
2021/07/07 02:10:40;;;;;;;4.45;1.15;;;20.00;99.90;;;;;;1876467;74;21166;-69
2021/07/07 02:13:12;;;;;;;5.60;1.12;;;20.00;99.90;;;;;;1882004;76;21141;-70
2021/07/07 02:15:40;;;;;;;;;;;20.00;99.90;;;;;;1867067;77;21169;-70
2021/07/07 02:18:09;;;;;;;4.95;1.32;;;20.00;99.90;;;;;;1865083;75;20546;-69
2021/07/07 02:20:41;;;;;;;3.98;1.27;;;20.00;99.90;;;;;;1876574;74;21142;-70
2021/07/07 02:23:13;;;;;;;6.87;1.52;;;20.00;99.90;;;;;;1862103;74;21090;-70
2021/07/07 02:25:45;;;;;;;10.65;1.45;;;19.90;99.90;;;;;;1870961;74;21179;-70
2021/07/07 02:28:15;;;;;;;4.55;1.30;;;19.90;99.90;;;;;;1875473;74;21127;-69
2021/07/07 02:30:45;;;;;;;5.95;1.17;;;19.90;99.90;;;;;;1872227;74;21198;-70
2021/07/07 02:33:13;;;;;;;6.60;1.20;;;19.90;99.90;;;;;;1866641;74;21145;-70
2021/07/07 02:35:42;;;;;;;4.65;1.32;;;19.90;99.90;;;;;;1870679;74;21104;-69
2021/07/07 02:38:13;;;;;;;3.15;1.10;;;19.80;99.90;;;;;;1878844;74;21119;-70
2021/07/07 02:40:41;;;;;;;3.60;1.00;;;19.80;99.90;;;;;;1881546;74;22181;-70
2021/07/07 02:43:10;;;;;;;3.20;1.07;;;19.80;99.90;;;;;;1877201;74;21098;-70
2021/07/07 02:45:39;;;;;;;6.83;1.20;;;19.80;99.90;;;;;;1864698;74;21089;-70
2021/07/07 02:48:09;;;;;;;3.10;1.10;;;19.80;99.90;;;;;;1864988;75;21105;-69
2021/07/07 02:50:37;;;;;;;7.75;1.12;;;19.80;99.90;;;;;;1881185;75;21079;-69
2021/07/07 02:53:07;;;;;;;2.65;1.00;;;19.80;99.90;;;;;;1873909;76;21109;-69
2021/07/07 02:55:34;;;;;;;3.77;1.10;;;19.80;99.90;;;;;;1883686;76;21014;-69
2021/07/07 02:58:02;;;;;;;9.45;1.20;;;19.70;99.90;;;;;;1872305;74;21035;-69
2021/07/07 03:00:39;;;;;;;5.20;1.37;;;19.80;99.90;;;;;;1872418;74;21597;-69
2021/07/07 03:03:08;;;;;;;5.80;1.72;;;19.70;99.90;;;;;;1872973;74;21008;-70
2021/07/07 03:05:51;;;;;;;3.87;1.00;;;19.70;99.90;;;;;;1871168;76;21031;-69
2021/07/07 03:08:21;;;;;;;8.68;1.27;;;19.70;99.90;;;;;;1866394;76;21024;-69
2021/07/07 03:11:08;;;;;;;5.00;1.27;;;19.70;99.90;;;;;;1865840;74;21533;-70
2021/07/07 03:13:35;;;;;;;6.92;1.20;;;19.70;99.90;;;;;;1860750;77;21084;-69
2021/07/07 03:16:04;;;;;;;3.65;1.42;;;19.80;99.90;;;;;;1840074;77;21162;-70
2021/07/07 03:18:51;;;;;;;5.92;1.40;;;19.80;99.90;;;;;;1860996;77;21100;-69
2021/07/07 03:21:18;;;;;;;5.70;1.37;;;19.80;99.90;;;;;;2016958;71;21102;-70
2021/07/07 03:23:46;;;;;;;6.28;1.47;;;19.80;99.90;;;;;;2014778;71;21566;-70
2021/07/07 03:26:13;;;;;;;5.80;1.17;;;19.70;99.90;;;;;;2000416;71;21065;-70
2021/07/07 03:28:41;;;;;;;7.55;1.07;;;19.70;99.90;;;;;;1993544;71;21127;-70
2021/07/07 03:31:08;;;;;;;7.40;1.60;;;19.80;99.90;;;;;;1995817;71;21144;-70
2021/07/07 03:33:36;;;;;;;7.42;1.80;;;19.80;99.90;;;;;;1992244;71;21153;-69
2021/07/07 03:36:04;;;;;;;3.17;1.10;;;19.70;99.90;;;;;;2013920;71;21432;-70
2021/07/07 03:38:31;;;;;;;5.22;1.20;;;19.70;99.90;;;;;;2004372;71;21138;-70
2021/07/07 03:40:59;;;;;;;3.27;1.20;;;19.70;99.90;;;;;;1997008;71;21184;-70
2021/07/07 03:43:26;;;;;;;4.47;1.32;;;19.60;99.90;;;;;;2011045;71;21134;-69
2021/07/07 03:45:54;;;;;;;8.35;1.40;;;19.60;99.90;;;;;;2009399;71;20999;-70
2021/07/07 03:48:21;;;;;;;4.53;1.10;;;19.60;99.90;;;;;;2008696;71;21486;-69
2021/07/07 03:50:49;;;;;;;6.87;1.25;;;19.60;99.90;;;;;;2012694;71;21108;-69
2021/07/07 03:53:16;;;;;;;4.00;1.37;;;19.60;99.90;;;;;;2002905;71;21057;-67
2021/07/07 03:55:44;;;;;;;4.28;1.50;;;19.60;99.90;;;;;;2011881;71;21065;-70
2021/07/07 03:58:11;;;;;;;10.03;1.60;;;19.60;99.90;;;;;;2009117;71;21146;-70
2021/07/07 04:00:39;;;;;;;7.45;1.45;;;19.60;99.90;;;;;;2012723;71;21128;-69
2021/07/07 04:03:07;;;;;;;3.92;1.22;;;19.50;99.90;;;;;;1983621;71;21037;-70
2021/07/07 04:05:35;;;;;;;4.25;1.02;;;19.60;99.90;;;;;;2008404;71;21150;-70
2021/07/07 04:08:02;;;;;;;4.05;1.30;;;19.60;99.90;;;;;;2014166;71;21585;-70
2021/07/07 04:10:30;;;;;;;3.70;1.20;;;19.60;99.90;;;;;;1992017;71;21128;-69
2021/07/07 04:12:57;;;;;;;5.35;1.40;;;19.60;99.90;;;;;;2004575;71;21065;-69
2021/07/07 04:15:25;;;;;;;5.87;1.50;;;19.60;99.90;;;;;;1979624;71;21079;-69
2021/07/07 04:17:52;;;;;;;6.10;1.50;;;19.60;99.90;;;;;;1965556;72;21042;-69
2021/07/07 04:20:20;;;;;;;5.97;1.50;;;19.60;99.90;;;;;;1927814;72;21172;-69
2021/07/07 04:22:50;;;;;;;7.10;1.40;;;19.60;99.90;;;;;;1958023;72;21166;-69
2021/07/07 04:25:18;;;;;;;11.50;1.75;;;19.60;99.90;;;;;;1949955;72;21096;-69
2021/07/07 04:27:48;;;;;;;5.58;1.17;;;19.60;99.90;;;;;;1930203;74;21558;-68
2021/07/07 04:30:17;;;;;;;4.05;1.20;;;19.60;99.90;;;;;;1946034;73;21070;-70
2021/07/07 04:32:46;;;;;;;5.62;1.40;;;19.60;99.90;;;;;;1935984;73;21074;-70
2021/07/07 04:35:16;;;;;;;4.95;1.57;;;19.60;99.90;;;;;;1930257;73;22055;-69
2021/07/07 04:37:44;;;;;;;5.17;1.37;;;19.70;99.90;;;;;;1935762;73;21069;-69
2021/07/07 04:40:13;;;;;;;3.15;1.12;;;19.60;99.90;;;;;;1957646;73;21171;-70
2021/07/07 04:42:41;;;;;;;5.72;1.35;;;19.60;99.90;;;;;;1929544;73;21054;-70
2021/07/07 04:45:09;;;;;;;7.12;1.82;;;19.60;99.90;;;;;;1929477;73;21136;-69
2021/07/07 04:47:38;;;;;;;4.45;1.27;;;19.60;99.90;;;;;;1935335;73;21047;-69
2021/07/07 04:50:08;;;;;;;4.47;1.30;;;19.70;99.90;;;;;;1938306;73;21563;-69
2021/07/07 04:52:37;;;;;;;5.72;1.60;;;19.70;99.90;;;;;;1929094;73;21090;-70
2021/07/07 04:55:07;;;;;;;5.50;1.40;;;19.70;99.90;;;;;;1930323;73;21006;-69
2021/07/07 04:57:43;;;;;;;6.00;1.55;;;19.70;99.90;;;;;;1930351;73;21022;-69
2021/07/07 05:00:19;;;;;;;5.25;1.30;;;19.70;99.90;;;;;;1943785;73;21077;-69
2021/07/07 05:02:47;;;;;;;6.55;1.30;;;19.70;99.90;;;;;;1936560;73;21045;-70
2021/07/07 05:05:17;;;;;;;4.65;1.47;;;19.70;99.90;;;;;;1947029;73;21010;-70
2021/07/07 05:07:46;;;;;;;6.53;1.60;;;19.80;99.90;;;;;;1957043;73;21101;-70
2021/07/07 05:10:14;;;;;;;5.78;1.70;;;19.70;99.90;;;;;;1931205;73;21609;-69
2021/07/07 05:12:43;;;;;;;4.35;1.40;;;19.80;99.90;;;;;;1955459;73;21163;-69
2021/07/07 05:15:12;;;;;;;4.45;1.30;;;19.80;99.90;;;;;;1936184;73;21074;-72
2021/07/07 05:17:41;;;;;;;6.78;1.62;;;19.80;99.90;;;;;;1928921;73;21093;-71
2021/07/07 05:20:09;;;;;;;6.72;1.40;;;19.90;99.90;;;;;;1956489;73;21433;-71
2021/07/07 05:22:37;;;;;;;2.02;1.22;;;19.90;99.90;;;;;;1915556;73;21082;-71
2021/07/07 05:25:05;;;;;;;7.00;1.32;;;20.00;99.90;;;;;;1916078;74;21105;-70
2021/07/07 05:27:32;;;;;;;10.30;4.40;;;20.00;99.90;;;;;;2007484;71;21154;-70
2021/07/07 05:30:00;;;;;;;8.28;4.22;;;20.00;99.90;;;;;;1995336;71;21025;-68
2021/07/07 05:32:27;;;;;;;6.15;1.47;;;20.00;99.90;;;;;;1999216;71;21081;-73
2021/07/07 05:34:56;;;;;;;7.87;1.60;;;20.00;99.90;;;;;;2007571;71;21116;-69
2021/07/07 05:37:24;;;;;;;8.13;1.40;;;20.10;99.90;;;;;;1982868;71;21143;-70
2021/07/07 05:39:53;;;;;;;3.67;1.12;;;20.20;99.90;;;;;;1977553;71;21123;-70
2021/07/07 05:42:21;;;;;;;5.78;1.82;;;20.20;99.90;;;;;;1983063;71;21133;-68
2021/07/07 05:44:55;;;;;;;8.60;1.60;;;20.20;99.90;;;;;;1975812;71;21573;-69
2021/07/07 05:47:23;;;;;;;6.77;1.40;;;20.20;99.90;;;;;;1972015;71;21134;-68
2021/07/07 05:49:56;;;;;;;4.10;1.37;;;20.30;99.90;;;;;;1941462;73;21577;-68
2021/07/07 05:52:20;;;;;;;5.80;1.60;;;20.30;99.90;;;;;;1984546;71;21140;-69
2021/07/07 05:54:48;;;;;;;4.70;1.37;;;20.30;99.90;;;;;;1987267;71;21108;-70
2021/07/07 05:57:15;;;;;;;7.08;1.67;;;20.40;99.90;;;;;;1999498;71;21077;-69
2021/07/07 05:59:43;;;;;;;6.40;1.62;;;20.30;99.90;;;;;;1993506;71;21209;-69
2021/07/07 06:02:10;;;;;;;7.62;1.80;;;20.30;99.90;;;;;;1986472;71;21109;-70
2021/07/07 06:04:38;;;;;;;7.75;2.00;;;20.40;99.90;;;;;;1984924;71;21076;-73
2021/07/07 06:07:05;;;;;;;6.45;1.82;;;20.40;99.90;;;;;;1998645;71;21077;-73
2021/07/07 06:09:33;;;;;;;5.45;1.70;;;20.50;99.90;;;;;;1988899;71;21590;-72
2021/07/07 06:12:00;;;;;;;9.83;2.00;;;20.50;99.90;;;;;;2008681;71;21061;-73
2021/07/07 06:14:28;;;;;;;9.73;2.17;;;20.50;99.90;;;;;;1993374;71;21073;-70
2021/07/07 06:16:55;;;;;;;8.35;2.10;;;20.60;99.90;;;;;;1979862;71;21078;-70
2021/07/07 06:19:23;;;;;;;4.47;1.50;;;20.50;99.90;;;;;;1992668;70;21090;-70
2021/07/07 06:24:17;;;;;;;6.80;1.50;;;20.60;99.90;;;;;;1900974;71;22088;-70
2021/07/07 06:26:45;;;;;;;6.78;2.17;;;20.60;99.90;;;;;;1875344;75;21490;-71
2021/07/07 06:29:14;;;;;;;16.45;1.90;;;20.70;99.90;;;;;;1901012;75;21136;-70
2021/07/07 06:31:42;;;;;;;10.38;1.87;;;20.60;99.90;;;;;;1900012;75;21146;-70
2021/07/07 06:34:11;;;;;;;8.35;2.02;;;20.70;99.90;;;;;;1871741;76;21512;-71
2021/07/07 06:36:39;;;;;;;7.35;1.98;;;20.80;99.90;;;;;;1868958;75;21058;-70
2021/07/07 06:39:07;;;;;;;6.00;2.10;;;20.90;99.90;;;;;;1868794;76;21057;-72
2021/07/07 06:41:34;;;;;;;7.17;1.60;;;20.90;99.90;;;;;;1865094;75;21061;-71
2021/07/07 06:44:02;;;;;;;8.35;1.90;;;21.00;99.90;;;;;;1862534;75;21130;-72
2021/07/07 06:46:30;;;;;;;8.78;1.80;;;21.00;99.90;;;;;;1869420;77;21096;-72
2021/07/07 06:48:58;;;;;;;6.25;1.52;;;21.00;99.90;;;;;;1867341;75;21147;-72
2021/07/07 06:51:25;;;;;;;4.45;1.45;;;21.00;99.90;;;;;;1869555;76;21082;-73
2021/07/07 06:53:53;;;;;;;6.17;1.70;;;21.10;99.90;;;;;;1866156;75;21137;-72
2021/07/07 06:56:20;;;;;;;9.58;1.70;;;21.20;99.90;;;;;;1866332;75;21626;-72
2021/07/07 06:58:48;;;;;;;9.90;1.80;;;21.20;99.90;;;;;;1869339;75;21082;-70
2021/07/07 07:01:16;;;;;;;6.67;1.32;;;21.30;99.90;;;;;;1863485;75;22498;-72
2021/07/07 07:03:44;;;;;;;4.22;1.37;;;21.40;99.90;;;;;;1863458;75;21439;-72
2021/07/07 07:06:12;;;;;;;9.63;1.77;;;21.40;99.90;;;;;;1867430;77;21687;-72
2021/07/07 07:08:40;;;;;;;9.25;1.65;;;21.50;99.90;;;;;;1867762;75;21144;-72
2021/07/07 07:11:10;;;;;;;18.40;1.70;;;21.50;99.90;;;;;;1868626;77;21089;-72
2021/07/07 07:13:37;;;;;;;6.50;1.30;;;21.60;99.90;;;;;;1865431;75;21758;-72
2021/07/07 07:16:05;;;;;;;6.35;1.67;;;21.60;99.90;;;;;;1861084;77;21113;-72
2021/07/07 07:18:32;;;;;;;3.85;1.40;;;21.70;99.90;;;;;;1863260;75;21526;-72
2021/07/07 07:21:00;;;;;;;7.00;1.37;;;21.80;99.90;;;;;;1863718;75;21198;-72
2021/07/07 07:23:27;;;;;;;9.45;1.85;;;21.80;99.90;;;;;;1877675;74;21107;-73
2021/07/07 07:25:55;;;;;;;6.90;1.60;;;21.70;99.90;;;;;;1902538;74;21162;-71
2021/07/07 07:28:22;;;;;;;6.78;1.70;;;21.70;99.90;;;;;;1901199;74;21073;-72
2021/07/07 07:30:50;;;;;;;7.45;1.85;;;21.80;99.90;;;;;;1896419;75;21084;-72
2021/07/07 07:33:17;;;;;;;8.38;2.15;;;21.80;99.90;;;;;;1896657;73;21153;-72
2021/07/07 07:35:46;;;;;;;5.22;1.65;;;21.80;99.90;;;;;;1903157;75;21440;-72
2021/07/07 07:38:26;;;;;;;6.50;1.55;;;21.80;99.90;;;;;;1901007;74;21150;-72
2021/07/07 07:40:48;;;;;;;;;;;21.80;99.90;;;;;;1915303;73;21005;-73
2021/07/07 07:43:14;;;;;;;6.10;1.57;;;21.80;99.90;;;;;;1903048;74;20185;-72
2021/07/07 07:45:42;;;;;;;7.28;1.57;;;21.90;99.90;;;;;;1897296;74;21064;-72
2021/07/07 07:48:09;;;;;;;8.23;1.98;;;22.00;99.90;;;;;;1890800;74;21142;-72
2021/07/07 07:50:37;;;;;;;6.58;1.72;;;22.10;99.90;;;;;;1895626;75;21045;-72
2021/07/07 07:53:04;;;;;;;7.30;1.40;;;22.20;99.90;;;;;;1902830;74;21129;-72
2021/07/07 07:55:32;;;;;;;9.38;2.30;;;22.30;99.90;;;;;;1912207;74;21024;-72
2021/07/07 07:57:59;;;;;;;7.12;2.25;;;22.40;99.90;;;;;;1900547;75;21085;-71
2021/07/07 08:00:27;;;;;;;9.43;1.82;;;22.30;99.90;;;;;;1899045;74;21555;-71
2021/07/07 08:02:55;;;;;;;9.95;1.90;;;22.30;99.90;;;;;;1900780;74;21212;-70
2021/07/07 08:05:23;;;;;;;12.63;1.90;;;22.30;99.90;;;;;;1901799;74;21101;-71
2021/07/07 08:07:51;;;;;;;6.75;1.70;;;22.20;99.90;;;;;;1913332;74;22112;-71
2021/07/07 08:10:22;;;;;;;6.05;1.65;;;22.30;99.90;;;;;;1921337;74;21115;-71
2021/07/07 08:12:52;;;;;;;5.77;1.40;;;22.50;99.90;;;;;;1902584;74;21133;-71
2021/07/07 08:15:20;;;;;;;7.78;1.95;;;22.50;99.90;;;;;;1900693;74;21616;-71
2021/07/07 08:17:47;;;;;;;8.38;1.75;;;22.50;99.90;;;;;;1900760;74;21085;-73
2021/07/07 08:20:16;;;;;;;9.30;2.08;;;22.60;99.90;;;;;;1898598;74;21153;-73
2021/07/07 08:22:43;;;;;;;7.00;1.67;;;22.70;99.90;;;;;;1903426;74;21146;-73
2021/07/07 08:25:12;;;;;;;8.28;1.92;;;22.80;99.90;;;;;;1897210;74;21144;-73
2021/07/07 08:27:40;;;;;;;8.98;1.60;;;22.80;99.90;;;;;;1904065;74;21020;-72
2021/07/07 08:30:10;;;;;;;8.88;1.77;;;22.80;99.90;;;;;;1907486;74;21609;-72
2021/07/07 08:32:38;;;;;;;4.70;1.67;;;22.70;99.90;;;;;;1893713;74;21578;-72
2021/07/07 08:35:07;;;;;;;6.25;1.52;;;22.80;99.90;;;;;;1899329;74;21128;-71
2021/07/07 08:37:34;;;;;;;6.17;1.90;;;23.00;99.90;;;;;;1901561;74;21087;-71
2021/07/07 08:40:03;;;;;;;6.08;1.82;;;23.00;99.90;;;;;;1905549;74;21379;-72
2021/07/07 08:42:34;;;;;;;12.33;1.87;;;23.10;99.90;;;;;;1893665;74;21125;-71
2021/07/07 08:45:01;;;;;;;6.92;2.15;;;23.00;99.90;;;;;;1900103;75;21158;-71
2021/07/07 08:47:29;;;;;;;8.68;2.08;;;23.20;99.90;;;;;;1900405;74;21124;-72
2021/07/07 08:49:56;;;;;;;7.25;1.67;;;23.10;99.90;;;;;;1914511;74;21075;-71
2021/07/07 08:52:24;;;;;;;8.00;1.82;;;23.20;99.90;;;;;;1910341;74;21055;-71
2021/07/07 08:54:51;;;;;;;7.30;1.62;;;23.30;99.90;;;;;;1903083;74;21093;-71
2021/07/07 08:57:21;;;;;;;10.43;1.92;;;23.40;99.90;;;;;;1909422;75;21069;-71
2021/07/07 08:59:49;;;;;;;6.28;1.57;;;23.40;98.70;;;;;;1906459;74;21166;-71
2021/07/07 09:02:18;;;;;;;8.10;2.02;;;23.50;98.10;;;;;;1904705;74;21153;-70
2021/07/07 09:04:47;;;;;;;8.05;1.67;;;23.60;98.20;;;;;;1894330;74;21106;-73
2021/07/07 09:07:17;;;;;;;11.78;2.10;;;23.70;98.10;;;;;;1907804;74;21020;-71
2021/07/07 09:09:46;;;;;;;11.85;1.98;;;23.70;97.80;;;;;;1898630;74;21479;-72
2021/07/07 09:12:19;;;;;;;10.80;1.95;;;23.70;98.30;;;;;;1899247;74;21113;-71
2021/07/07 09:14:49;;;;;;;9.88;1.95;;;23.70;97.00;;;;;;1900477;74;21034;-72
2021/07/07 09:17:20;;;;;;;10.03;1.80;;;23.80;96.70;;;;;;1904673;75;21113;-71
2021/07/07 09:19:48;;;;;;;9.30;1.70;;;23.90;96.10;;;;;;1899499;74;21085;-71
2021/07/07 09:22:16;;;;;;;10.32;1.60;;;23.90;95.70;;;;;;1891479;74;21116;-71
2021/07/07 09:24:48;;;;;;;8.68;1.60;;;23.90;95.50;;;;;;1891724;74;21104;-72
2021/07/07 09:27:17;;;;;;;5.42;1.40;;;24.00;95.30;;;;;;1898336;75;21184;-72
2021/07/07 09:29:49;;;;;;;6.20;1.35;;;24.10;95.30;;;;;;1902434;74;21519;-71
2021/07/07 09:32:27;;;;;;;13.08;1.98;;;24.20;96.00;;;;;;1898148;74;21148;-71
2021/07/07 09:35:00;;;;;;;6.80;1.40;;;24.20;96.20;;;;;;1902572;74;21690;-72
2021/07/07 09:37:35;;;;;;;9.70;1.75;;;24.30;95.90;;;;;;1900042;75;21104;-72
2021/07/07 09:39:59;;;;;;;6.97;1.95;;;24.30;96.10;;;;;;1899077;74;21089;-72
2021/07/07 09:42:29;;;;;;;6.17;1.77;;;24.40;97.10;;;;;;1903756;73;21172;-72
2021/07/07 09:44:59;;;;;;;12.07;1.80;;;24.50;96.00;;;;;;1904523;74;21102;-73
2021/07/07 09:47:29;;;;;;;8.93;1.70;;;24.50;96.50;;;;;;1905248;75;21510;-73
2021/07/07 09:49:57;;;;;;;11.48;1.87;;;24.50;95.80;;;;;;1897332;74;21104;-73
2021/07/07 09:52:27;;;;;;;9.58;1.60;;;24.50;96.10;;;;;;1900873;74;21116;-71
2021/07/07 09:54:55;;;;;;;9.10;2.00;;;24.50;95.60;;;;;;1897613;74;21076;-71
2021/07/07 09:57:23;;;;;;;9.63;2.00;;;24.60;95.70;;;;;;1891994;74;21093;-71
2021/07/07 09:59:51;;;;;;;8.98;2.08;;;24.60;95.30;;;;;;1898300;74;21093;-71
2021/07/07 10:02:18;;;;;;;12.98;1.57;;;24.40;95.10;;;;;;1895252;74;21184;-71
2021/07/07 10:04:46;;;;;;;8.45;1.70;;;24.40;95.80;;;;;;1898186;75;21042;-71
2021/07/07 10:07:15;;;;;;;9.08;1.90;;;24.30;95.60;;;;;;1878800;74;21639;-71
2021/07/07 10:09:47;;;;;;;8.43;1.65;;;24.40;96.00;;;;;;1908268;74;21217;-71
2021/07/07 10:12:16;;;;;;;10.13;2.22;;;24.40;96.10;;;;;;1910365;74;21234;-71
2021/07/07 10:14:45;;;;;;;6.45;1.80;;;24.50;96.10;;;;;;1898272;75;21101;-71
2021/07/07 10:17:13;;;;;;;9.58;1.85;;;24.60;95.90;;;;;;1911135;75;21082;-71
2021/07/07 10:19:40;;;;;;;7.35;1.77;;;24.70;94.80;;;;;;1911414;74;21106;-71
2021/07/07 10:22:08;;;;;;;9.88;2.05;;;24.50;94.70;;;;;;1902623;74;21072;-72
2021/07/07 10:24:36;;;;;;;10.38;2.05;;;24.50;94.90;;;;;;1906565;74;21166;-72
2021/07/07 10:27:06;;;;;;;10.78;1.70;;;24.60;95.30;;;;;;1898256;74;21067;-72
2021/07/07 10:29:36;;;;;;;9.30;1.90;;;24.90;95.40;;;;;;1898660;75;21561;-72
2021/07/07 10:32:05;;;;;;;5.97;1.57;;;25.00;94.20;;;;;;1903661;74;21059;-73
2021/07/07 10:34:34;;;;;;;9.78;2.02;;;24.90;94.90;;;;;;1907215;74;21038;-73
2021/07/07 10:37:02;;;;;;;12.23;1.82;;;24.90;92.60;;;;;;1906679;74;21011;-72
2021/07/07 10:39:31;;;;;;;8.25;1.40;;;24.90;93.00;;;;;;1904982;74;21028;-72
2021/07/07 10:42:04;;;;;;;8.50;1.60;;;25.00;93.50;;;;;;1891595;74;21037;-75
2021/07/07 10:44:40;;;;;;;12.88;2.30;;;25.10;92.90;;;;;;1898128;74;21045;-73
2021/07/07 10:47:13;;;;;;;6.70;1.72;;;25.10;92.70;;;;;;1901327;74;21107;-72
2021/07/07 10:49:46;;;;;;;7.87;1.62;;;25.10;93.20;;;;;;1899250;75;21148;-72
2021/07/07 10:52:17;;;;;;;9.10;1.87;;;25.10;94.00;;;;;;1896947;74;21699;-71
2021/07/07 10:55:01;;;;;;;12.47;2.00;;;25.20;93.30;;;;;;1887562;74;21133;-72
2021/07/07 10:57:40;;;;;;;6.83;1.45;;;25.10;93.20;;;;;;1885393;74;21158;-73
2021/07/07 11:00:00;;;;;;;9.50;1.95;;;25.20;92.90;;;;;;1898445;74;21104;-72
2021/07/07 11:02:28;;;;;;;8.10;1.60;;;25.20;93.70;;;;;;1900651;73;21799;-72
2021/07/07 11:05:02;;;;;;;6.95;1.82;;;25.30;92.80;;;;;;1903533;74;21018;-72
2021/07/07 11:07:34;;;;;;;10.38;1.90;;;25.30;92.60;;;;;;1895886;75;21618;-73
2021/07/07 11:10:11;;;;;;;12.25;2.02;;;25.30;92.50;;;;;;1893803;74;21174;-75
2021/07/07 11:12:42;;;;;;;8.00;1.72;;;25.20;93.20;;;;;;1905040;73;21119;-73
2021/07/07 11:15:24;;;;;;;13.03;1.90;;;25.20;93.70;;;;;;1913182;74;21087;-73
2021/07/07 11:17:54;;;;;;;9.68;1.87;;;25.10;93.80;;;;;;1903609;74;21120;-72
2021/07/07 11:20:24;;;;;;;9.55;2.10;;;25.10;93.40;;;;;;1894182;75;21030;-73
2021/07/07 11:23:06;;;;;;;13.70;2.05;;;25.20;93.20;;;;;;1896441;74;21200;-73
2021/07/07 11:25:36;;;;;;;12.23;1.90;;;25.20;92.40;;;;;;1899197;75;21106;-73
2021/07/07 11:28:07;;;;;;;9.78;1.90;;;25.20;91.90;;;;;;1907633;74;21110;-72
2021/07/07 11:30:35;;;;;;;9.13;1.70;;;25.40;93.00;;;;;;1903681;75;21555;-73
2021/07/07 11:33:07;;;;;;;8.98;2.12;;;25.50;93.00;;;;;;1904323;74;21152;-73
2021/07/07 11:35:34;;;;;;;13.30;2.00;;;25.60;92.00;;;;;;1896507;75;21176;-73
2021/07/07 11:38:05;;;;;;;9.20;1.95;;;25.60;92.20;;;;;;1895165;74;21094;-74
2021/07/07 11:40:35;;;;;;;11.65;1.82;;;25.70;92.10;;;;;;1905639;74;21159;-75
2021/07/07 11:43:20;;;;;;;14.38;1.72;;;25.80;92.60;;;;;;1903719;73;21048;-74
2021/07/07 11:45:49;;;;;;;12.80;2.02;;;25.90;92.70;;;;;;1907941;75;21523;-74
2021/07/07 11:50:58;;;;;;;10.00;2.25;;;26.00;93.40;;;;;;1902419;75;21605;-73
2021/07/07 11:53:44;;;;;;;7.67;1.70;;;25.90;91.30;;;;;;1903652;74;21124;-73
2021/07/07 11:56:25;;;;;;;8.28;1.70;;;25.80;91.90;;;;;;1887082;75;21472;-73
2021/07/07 11:58:54;;;;;;;11.78;1.87;;;25.70;92.10;;;;;;1896992;75;21159;-74
2021/07/07 12:01:30;;;;;;;10.53;1.60;;;25.60;92.40;;;;;;1901298;75;21073;-73
2021/07/07 12:04:00;;;;;;;10.85;1.90;;;25.60;91.90;;;;;;1896561;74;22138;-73
2021/07/07 12:06:33;;;;;;;9.88;2.02;;;25.60;93.50;;;;;;1903710;74;21500;-71
2021/07/07 12:09:02;;;;;;;11.33;2.00;;;25.70;92.60;;;;;;1895926;74;21121;-71
2021/07/07 12:11:30;;;;;;;6.37;1.30;;;25.70;90.90;;;;;;1920799;74;21060;-73
2021/07/07 12:13:59;;;;;;;8.93;2.02;;;25.60;90.60;;;;;;1901774;74;21112;-72
2021/07/07 12:16:36;;;;;;;12.07;2.00;;;25.60;90.40;;;;;;1898391;74;21171;-72
2021/07/07 12:19:14;;;;;;;9.05;1.87;;;25.50;90.50;;;;;;1896364;75;21125;-72
2021/07/07 12:21:45;;;;;;;8.68;1.77;;;25.50;91.10;;;;;;1899802;74;21070;-73
2021/07/07 12:24:15;;;;;;;7.25;1.90;;;25.60;90.80;;;;;;1851585;71;21673;-69
2021/07/07 12:26:46;;;;;;;9.10;1.90;;;25.70;91.10;;;;;;1819240;77;21584;-70
2021/07/07 12:29:17;;;;;;;8.98;1.70;;;25.80;89.20;;;;;;1817914;77;21107;-70
2021/07/07 12:31:45;;;;;;;7.67;1.47;;;25.80;90.40;;;;;;1816209;79;21095;-69
2021/07/07 12:34:14;;;;;;;9.00;2.00;;;25.80;90.70;;;;;;1833168;77;21656;-71
2021/07/07 12:36:44;;;;;;;10.78;1.92;;;25.90;91.40;;;;;;1829933;78;21059;-69
2021/07/07 12:39:15;;;;;;;14.38;1.98;;;26.00;90.90;;;;;;1839821;78;21132;-70
2021/07/07 12:41:45;;;;;;;11.63;1.80;;;25.80;90.50;;;;;;1876367;76;21380;-69
2021/07/07 12:44:15;;;;;;;7.15;1.50;;;25.70;90.00;;;;;;1835633;77;21142;-70
2021/07/07 12:47:02;;;;;;;11.83;1.87;;;25.70;90.50;;;;;;1825258;76;21552;-69
2021/07/07 12:49:38;;;;;;;7.45;2.12;;;25.60;87.20;;;;;;1828267;76;21154;-70
2021/07/07 12:52:17;;;;;;;9.48;2.00;;;25.50;90.00;;;;;;1843956;76;21068;-71
2021/07/07 12:54:46;;;;;;;8.65;1.60;;;25.50;87.40;;;;;;1768812;79;21097;-70
2021/07/07 12:57:14;;;;;;;8.93;1.80;;;25.80;89.20;;;;;;1841966;76;21888;-70
2021/07/07 12:59:54;;;;;;;7.70;1.30;;;25.90;86.50;;;;;;1859181;76;21121;-70
2021/07/07 13:02:21;;;;;;;8.00;1.47;;;25.90;87.90;;;;;;1850841;77;21590;-71